Terminal Aerodrome Forecast
Issued by NWS Salt Lake City, UT

Home | Current Version | Previous Version | Text Only | Print | Product List | Glossary On
Versions: 1 2 3 4 5 6 7 8 9 10 11 12 13 14 15 16 17 18 19 20 21 22 23 24 25 26 27 28
000
FTUS45 KSLC 270328 AAC
TAFSLC
TAF AMD
KSLC 270328Z 2703/2806 01007KT P6SM FEW080 SCT120
     FM270336 25025G35KT 3SM -TSRA SCT050CB BKN080
     FM270430 29011KT P6SM VCTS SCT060CB BKN090
     FM270500 16006KT P6SM FEW060 SCT120
     FM271800 33007KT P6SM SCT100 BKN120
     FM280400 15006KT P6SM FEW120=

USA.gov is the U.S. government's official web portal to all federal, state and local government web resources and services.